<?xml version="1.0" encoding="utf-8"?>
<gpx xmlns:xsi="http://www.w3.org/2001/XMLSchema-instance" xmlns:xsd="http://www.w3.org/2001/XMLSchema" version="1.1" creator="Shapelink.com" xmlns="http://www.topografix.com/GPX/1/1" xmlns:gpxtpx="http://www.garmin.com/xmlschemas/TrackPointExtension/v1">
  <metadata>
    <name>Løping 4.81 km, 2012-03-22</name>
    <desc></desc>
    <author><name>Mikael Blom</name></author> 
    <time>2012-03-22T16:16:31Z</time>
  </metadata>
  <trk>
    <name>Løping 4.81 km, 2012-03-22</name>
    <trkseg>
      <trkpt lat="59.9843967" lon="17.7378454">
        <ele>60.7003</ele>
        <time>2012-03-22T16:16:31Z</time>
      </trkpt>
      <trkpt lat="59.9845618" lon="17.737862">
        <ele>65.5071</ele>
        <time>2012-03-22T16:16:36Z</time>
      </trkpt>
      <trkpt lat="59.9847413" lon="17.7378835">
        <ele>68.3909</ele>
        <time>2012-03-22T16:16:41Z</time>
      </trkpt>
      <trkpt lat="59.9848609" lon="17.737897">
        <ele>67.4297</ele>
        <time>2012-03-22T16:16:45Z</time>
      </trkpt>
      <trkpt lat="59.9848932" lon="17.7379106">
        <ele>65.9877</ele>
        <time>2012-03-22T16:16:47Z</time>
      </trkpt>
      <trkpt lat="59.9850221" lon="17.7379377">
        <ele>64.5457</ele>
        <time>2012-03-22T16:16:53Z</time>
      </trkpt>
      <trkpt lat="59.9850997" lon="17.7379437">
        <ele>63.5844</ele>
        <time>2012-03-22T16:16:57Z</time>
      </trkpt>
      <trkpt lat="59.9852455" lon="17.7379776">
        <ele>61.181</ele>
        <time>2012-03-22T16:17:02Z</time>
      </trkpt>
      <trkpt lat="59.9853882" lon="17.7380311">
        <ele>60.2197</ele>
        <time>2012-03-22T16:17:07Z</time>
      </trkpt>
      <trkpt lat="59.9855113" lon="17.7381199">
        <ele>58.7777</ele>
        <time>2012-03-22T16:17:12Z</time>
      </trkpt>
      <trkpt lat="59.9856065" lon="17.7381599">
        <ele>58.2971</ele>
        <time>2012-03-22T16:17:17Z</time>
      </trkpt>
      <trkpt lat="59.985739" lon="17.7381971">
        <ele>61.6617</ele>
        <time>2012-03-22T16:17:22Z</time>
      </trkpt>
      <trkpt lat="59.9858879" lon="17.7382591">
        <ele>63.5844</ele>
        <time>2012-03-22T16:17:29Z</time>
      </trkpt>
      <trkpt lat="59.9860422" lon="17.7383342">
        <ele>66.949</ele>
        <time>2012-03-22T16:17:35Z</time>
      </trkpt>
      <trkpt lat="59.9861649" lon="17.7384312">
        <ele>67.9103</ele>
        <time>2012-03-22T16:17:41Z</time>
      </trkpt>
      <trkpt lat="59.9863052" lon="17.7385229">
        <ele>68.8716</ele>
        <time>2012-03-22T16:17:47Z</time>
      </trkpt>
      <trkpt lat="59.9864494" lon="17.7386094">
        <ele>69.3523</ele>
        <time>2012-03-22T16:17:53Z</time>
      </trkpt>
      <trkpt lat="59.9865294" lon="17.7386762">
        <ele>70.7942</ele>
        <time>2012-03-22T16:17:57Z</time>
      </trkpt>
      <trkpt lat="59.9866022" lon="17.738781">
        <ele>70.7942</ele>
        <time>2012-03-22T16:18:02Z</time>
      </trkpt>
      <trkpt lat="59.9866757" lon="17.7389181">
        <ele>68.8716</ele>
        <time>2012-03-22T16:18:06Z</time>
      </trkpt>
      <trkpt lat="59.986791" lon="17.739032">
        <ele>65.9877</ele>
        <time>2012-03-22T16:18:11Z</time>
      </trkpt>
      <trkpt lat="59.9869144" lon="17.7391436">
        <ele>63.1036</ele>
        <time>2012-03-22T16:18:16Z</time>
      </trkpt>
      <trkpt lat="59.9870248" lon="17.7392352">
        <ele>61.6617</ele>
        <time>2012-03-22T16:18:21Z</time>
      </trkpt>
      <trkpt lat="59.9870425" lon="17.7392477">
        <ele>61.6617</ele>
        <time>2012-03-22T16:18:22Z</time>
      </trkpt>
      <trkpt lat="59.9871693" lon="17.7392397">
        <ele>62.1423</ele>
        <time>2012-03-22T16:18:27Z</time>
      </trkpt>
      <trkpt lat="59.9873066" lon="17.7392067">
        <ele>63.5844</ele>
        <time>2012-03-22T16:18:33Z</time>
      </trkpt>
      <trkpt lat="59.987448" lon="17.7391633">
        <ele>66.4683</ele>
        <time>2012-03-22T16:18:39Z</time>
      </trkpt>
      <trkpt lat="59.9875837" lon="17.7391355">
        <ele>68.3909</ele>
        <time>2012-03-22T16:18:45Z</time>
      </trkpt>
      <trkpt lat="59.9877245" lon="17.7390632">
        <ele>70.3135</ele>
        <time>2012-03-22T16:18:51Z</time>
      </trkpt>
      <trkpt lat="59.9878448" lon="17.7390487">
        <ele>70.7942</ele>
        <time>2012-03-22T16:18:56Z</time>
      </trkpt>
      <trkpt lat="59.9878749" lon="17.7390676">
        <ele>70.7942</ele>
        <time>2012-03-22T16:18:57Z</time>
      </trkpt>
      <trkpt lat="59.9880612" lon="17.7389921">
        <ele>70.3135</ele>
        <time>2012-03-22T16:19:05Z</time>
      </trkpt>
      <trkpt lat="59.9881903" lon="17.7389526">
        <ele>71.2749</ele>
        <time>2012-03-22T16:19:10Z</time>
      </trkpt>
      <trkpt lat="59.9883113" lon="17.7389038">
        <ele>70.7942</ele>
        <time>2012-03-22T16:19:16Z</time>
      </trkpt>
      <trkpt lat="59.9884417" lon="17.7388866">
        <ele>70.7942</ele>
        <time>2012-03-22T16:19:21Z</time>
      </trkpt>
      <trkpt lat="59.9885798" lon="17.7388836">
        <ele>70.3135</ele>
        <time>2012-03-22T16:19:26Z</time>
      </trkpt>
      <trkpt lat="59.9887326" lon="17.7387862">
        <ele>70.7942</ele>
        <time>2012-03-22T16:19:32Z</time>
      </trkpt>
      <trkpt lat="59.9888288" lon="17.738705">
        <ele>72.2362</ele>
        <time>2012-03-22T16:19:36Z</time>
      </trkpt>
      <trkpt lat="59.9889293" lon="17.7386098">
        <ele>72.7169</ele>
        <time>2012-03-22T16:19:41Z</time>
      </trkpt>
      <trkpt lat="59.9890269" lon="17.7385269">
        <ele>72.2362</ele>
        <time>2012-03-22T16:19:45Z</time>
      </trkpt>
      <trkpt lat="59.98915" lon="17.7384157">
        <ele>71.7555</ele>
        <time>2012-03-22T16:19:51Z</time>
      </trkpt>
      <trkpt lat="59.9892781" lon="17.7383303">
        <ele>71.2749</ele>
        <time>2012-03-22T16:19:57Z</time>
      </trkpt>
      <trkpt lat="59.9893947" lon="17.7382682">
        <ele>71.7555</ele>
        <time>2012-03-22T16:20:02Z</time>
      </trkpt>
      <trkpt lat="59.9895173" lon="17.7382353">
        <ele>71.7555</ele>
        <time>2012-03-22T16:20:07Z</time>
      </trkpt>
      <trkpt lat="59.9896366" lon="17.7381928">
        <ele>70.3135</ele>
        <time>2012-03-22T16:20:13Z</time>
      </trkpt>
      <trkpt lat="59.9897763" lon="17.7381826">
        <ele>71.2749</ele>
        <time>2012-03-22T16:20:18Z</time>
      </trkpt>
      <trkpt lat="59.9899038" lon="17.7381354">
        <ele>71.2749</ele>
        <time>2012-03-22T16:20:23Z</time>
      </trkpt>
      <trkpt lat="59.9900474" lon="17.7380929">
        <ele>73.6782</ele>
        <time>2012-03-22T16:20:28Z</time>
      </trkpt>
      <trkpt lat="59.9901423" lon="17.7380404">
        <ele>73.1976</ele>
        <time>2012-03-22T16:20:33Z</time>
      </trkpt>
      <trkpt lat="59.9902898" lon="17.7379897">
        <ele>73.6782</ele>
        <time>2012-03-22T16:20:38Z</time>
      </trkpt>
      <trkpt lat="59.9904229" lon="17.7379588">
        <ele>72.2362</ele>
        <time>2012-03-22T16:20:42Z</time>
      </trkpt>
      <trkpt lat="59.9904909" lon="17.7379313">
        <ele>68.3909</ele>
        <time>2012-03-22T16:20:46Z</time>
      </trkpt>
      <trkpt lat="59.9905855" lon="17.7378666">
        <ele>65.9877</ele>
        <time>2012-03-22T16:20:51Z</time>
      </trkpt>
      <trkpt lat="59.9907264" lon="17.737767">
        <ele>65.0264</ele>
        <time>2012-03-22T16:20:57Z</time>
      </trkpt>
      <trkpt lat="59.9908294" lon="17.7376801">
        <ele>67.4297</ele>
        <time>2012-03-22T16:21:02Z</time>
      </trkpt>
      <trkpt lat="59.9909846" lon="17.7375849">
        <ele>69.8329</ele>
        <time>2012-03-22T16:21:07Z</time>
      </trkpt>
      <trkpt lat="59.9910141" lon="17.7375631">
        <ele>69.8329</ele>
        <time>2012-03-22T16:21:08Z</time>
      </trkpt>
      <trkpt lat="59.9911528" lon="17.7374765">
        <ele>71.7555</ele>
        <time>2012-03-22T16:21:14Z</time>
      </trkpt>
      <trkpt lat="59.9913076" lon="17.7374224">
        <ele>76.0814</ele>
        <time>2012-03-22T16:21:19Z</time>
      </trkpt>
      <trkpt lat="59.9914388" lon="17.737387">
        <ele>78.9655</ele>
        <time>2012-03-22T16:21:24Z</time>
      </trkpt>
      <trkpt lat="59.991574" lon="17.7373774">
        <ele>80.8882</ele>
        <time>2012-03-22T16:21:29Z</time>
      </trkpt>
      <trkpt lat="59.9916496" lon="17.7373676">
        <ele>80.8882</ele>
        <time>2012-03-22T16:21:33Z</time>
      </trkpt>
      <trkpt lat="59.9917584" lon="17.7374035">
        <ele>77.0428</ele>
        <time>2012-03-22T16:21:38Z</time>
      </trkpt>
      <trkpt lat="59.9918889" lon="17.7373703">
        <ele>75.6008</ele>
        <time>2012-03-22T16:21:43Z</time>
      </trkpt>
      <trkpt lat="59.9919997" lon="17.7373652">
        <ele>74.1588</ele>
        <time>2012-03-22T16:21:47Z</time>
      </trkpt>
      <trkpt lat="59.9920636" lon="17.7373625">
        <ele>71.7555</ele>
        <time>2012-03-22T16:21:50Z</time>
      </trkpt>
      <trkpt lat="59.9921907" lon="17.7372731">
        <ele>69.8329</ele>
        <time>2012-03-22T16:21:56Z</time>
      </trkpt>
      <trkpt lat="59.9923415" lon="17.7371487">
        <ele>68.3909</ele>
        <time>2012-03-22T16:22:02Z</time>
      </trkpt>
      <trkpt lat="59.9923886" lon="17.7370988">
        <ele>68.8716</ele>
        <time>2012-03-22T16:22:04Z</time>
      </trkpt>
      <trkpt lat="59.9924955" lon="17.7369936">
        <ele>66.949</ele>
        <time>2012-03-22T16:22:09Z</time>
      </trkpt>
      <trkpt lat="59.9925359" lon="17.7369651">
        <ele>65.9877</ele>
        <time>2012-03-22T16:22:11Z</time>
      </trkpt>
      <trkpt lat="59.9926505" lon="17.7368156">
        <ele>62.6229</ele>
        <time>2012-03-22T16:22:17Z</time>
      </trkpt>
      <trkpt lat="59.9927711" lon="17.736626">
        <ele>60.7003</ele>
        <time>2012-03-22T16:22:23Z</time>
      </trkpt>
      <trkpt lat="59.9928695" lon="17.7364507">
        <ele>60.2197</ele>
        <time>2012-03-22T16:22:28Z</time>
      </trkpt>
      <trkpt lat="59.9929732" lon="17.7362284">
        <ele>59.2584</ele>
        <time>2012-03-22T16:22:34Z</time>
      </trkpt>
      <trkpt lat="59.9930783" lon="17.7360096">
        <ele>58.2971</ele>
        <time>2012-03-22T16:22:40Z</time>
      </trkpt>
      <trkpt lat="59.9932074" lon="17.7357519">
        <ele>58.7777</ele>
        <time>2012-03-22T16:22:47Z</time>
      </trkpt>
      <trkpt lat="59.9933445" lon="17.7355905">
        <ele>59.7391</ele>
        <time>2012-03-22T16:22:52Z</time>
      </trkpt>
      <trkpt lat="59.9934828" lon="17.7354796">
        <ele>61.6617</ele>
        <time>2012-03-22T16:22:57Z</time>
      </trkpt>
      <trkpt lat="59.9936429" lon="17.7354325">
        <ele>63.1036</ele>
        <time>2012-03-22T16:23:02Z</time>
      </trkpt>
      <trkpt lat="59.9937655" lon="17.735425">
        <ele>60.2197</ele>
        <time>2012-03-22T16:23:07Z</time>
      </trkpt>
      <trkpt lat="59.9938999" lon="17.7354402">
        <ele>58.2971</ele>
        <time>2012-03-22T16:23:12Z</time>
      </trkpt>
      <trkpt lat="59.9940573" lon="17.7354791">
        <ele>56.3745</ele>
        <time>2012-03-22T16:23:18Z</time>
      </trkpt>
      <trkpt lat="59.9941154" lon="17.7355273">
        <ele>52.5292</ele>
        <time>2012-03-22T16:23:21Z</time>
      </trkpt>
      <trkpt lat="59.9942933" lon="17.7355403">
        <ele>53.9712</ele>
        <time>2012-03-22T16:23:27Z</time>
      </trkpt>
      <trkpt lat="59.9943525" lon="17.7355524">
        <ele>55.4131</ele>
        <time>2012-03-22T16:23:29Z</time>
      </trkpt>
      <trkpt lat="59.9945276" lon="17.7355587">
        <ele>62.6229</ele>
        <time>2012-03-22T16:23:34Z</time>
      </trkpt>
      <trkpt lat="59.9946343" lon="17.7356498">
        <ele>56.8551</ele>
        <time>2012-03-22T16:23:40Z</time>
      </trkpt>
      <trkpt lat="59.9947288" lon="17.7357584">
        <ele>53.4905</ele>
        <time>2012-03-22T16:23:45Z</time>
      </trkpt>
      <trkpt lat="59.9948113" lon="17.7358412">
        <ele>53.0098</ele>
        <time>2012-03-22T16:23:50Z</time>
      </trkpt>
      <trkpt lat="59.9949239" lon="17.7358945">
        <ele>55.4131</ele>
        <time>2012-03-22T16:23:55Z</time>
      </trkpt>
      <trkpt lat="59.9950853" lon="17.7359188">
        <ele>60.2197</ele>
        <time>2012-03-22T16:24:01Z</time>
      </trkpt>
      <trkpt lat="59.9951525" lon="17.7359182">
        <ele>60.7003</ele>
        <time>2012-03-22T16:24:04Z</time>
      </trkpt>
      <trkpt lat="59.9953964" lon="17.7359216">
        <ele>66.4683</ele>
        <time>2012-03-22T16:24:12Z</time>
      </trkpt>
      <trkpt lat="59.9955243" lon="17.735927">
        <ele>65.9877</ele>
        <time>2012-03-22T16:24:18Z</time>
      </trkpt>
      <trkpt lat="59.9956257" lon="17.7359057">
        <ele>66.4683</ele>
        <time>2012-03-22T16:24:23Z</time>
      </trkpt>
      <trkpt lat="59.9957787" lon="17.7359053">
        <ele>68.3909</ele>
        <time>2012-03-22T16:24:29Z</time>
      </trkpt>
      <trkpt lat="59.9959395" lon="17.7359073">
        <ele>70.3135</ele>
        <time>2012-03-22T16:24:35Z</time>
      </trkpt>
      <trkpt lat="59.9960869" lon="17.7359489">
        <ele>67.4297</ele>
        <time>2012-03-22T16:24:40Z</time>
      </trkpt>
      <trkpt lat="59.9962265" lon="17.7359707">
        <ele>66.949</ele>
        <time>2012-03-22T16:24:45Z</time>
      </trkpt>
      <trkpt lat="59.9963423" lon="17.7360055">
        <ele>68.3909</ele>
        <time>2012-03-22T16:24:49Z</time>
      </trkpt>
      <trkpt lat="59.9964135" lon="17.7360473">
        <ele>67.4297</ele>
        <time>2012-03-22T16:24:53Z</time>
      </trkpt>
      <trkpt lat="59.9965997" lon="17.7361487">
        <ele>70.7942</ele>
        <time>2012-03-22T16:24:59Z</time>
      </trkpt>
      <trkpt lat="59.9967552" lon="17.7362435">
        <ele>69.8329</ele>
        <time>2012-03-22T16:25:04Z</time>
      </trkpt>
      <trkpt lat="59.9969243" lon="17.7363123">
        <ele>69.3523</ele>
        <time>2012-03-22T16:25:09Z</time>
      </trkpt>
      <trkpt lat="59.9970001" lon="17.736365">
        <ele>65.0264</ele>
        <time>2012-03-22T16:25:13Z</time>
      </trkpt>
      <trkpt lat="59.9970711" lon="17.7363999">
        <ele>62.1423</ele>
        <time>2012-03-22T16:25:18Z</time>
      </trkpt>
      <trkpt lat="59.9971556" lon="17.7364043">
        <ele>58.7777</ele>
        <time>2012-03-22T16:25:23Z</time>
      </trkpt>
      <trkpt lat="59.9972305" lon="17.7363965">
        <ele>59.2584</ele>
        <time>2012-03-22T16:25:27Z</time>
      </trkpt>
      <trkpt lat="59.9973459" lon="17.7364072">
        <ele>60.7003</ele>
        <time>2012-03-22T16:25:32Z</time>
      </trkpt>
      <trkpt lat="59.9975068" lon="17.7364519">
        <ele>58.7777</ele>
        <time>2012-03-22T16:25:38Z</time>
      </trkpt>
      <trkpt lat="59.9976101" lon="17.736445">
        <ele>59.2584</ele>
        <time>2012-03-22T16:25:43Z</time>
      </trkpt>
      <trkpt lat="59.9977046" lon="17.7364528">
        <ele>60.2197</ele>
        <time>2012-03-22T16:25:47Z</time>
      </trkpt>
      <trkpt lat="59.9978538" lon="17.7364362">
        <ele>61.181</ele>
        <time>2012-03-22T16:25:53Z</time>
      </trkpt>
      <trkpt lat="59.9979961" lon="17.7364323">
        <ele>60.2197</ele>
        <time>2012-03-22T16:25:58Z</time>
      </trkpt>
      <trkpt lat="59.9980947" lon="17.7364709">
        <ele>58.2971</ele>
        <time>2012-03-22T16:26:02Z</time>
      </trkpt>
      <trkpt lat="59.998217" lon="17.7365045">
        <ele>55.4131</ele>
        <time>2012-03-22T16:26:07Z</time>
      </trkpt>
      <trkpt lat="59.9983433" lon="17.7365367">
        <ele>53.9712</ele>
        <time>2012-03-22T16:26:13Z</time>
      </trkpt>
      <trkpt lat="59.9984863" lon="17.7365567">
        <ele>54.9324</ele>
        <time>2012-03-22T16:26:18Z</time>
      </trkpt>
      <trkpt lat="59.9986122" lon="17.7365657">
        <ele>58.2971</ele>
        <time>2012-03-22T16:26:22Z</time>
      </trkpt>
      <trkpt lat="59.9987257" lon="17.7365763">
        <ele>58.7777</ele>
        <time>2012-03-22T16:26:26Z</time>
      </trkpt>
      <trkpt lat="59.9988441" lon="17.7365871">
        <ele>58.2971</ele>
        <time>2012-03-22T16:26:31Z</time>
      </trkpt>
      <trkpt lat="59.9989535" lon="17.7366237">
        <ele>57.3358</ele>
        <time>2012-03-22T16:26:35Z</time>
      </trkpt>
      <trkpt lat="59.9990657" lon="17.736647">
        <ele>54.9324</ele>
        <time>2012-03-22T16:26:40Z</time>
      </trkpt>
      <trkpt lat="59.9991623" lon="17.7366623">
        <ele>54.9324</ele>
        <time>2012-03-22T16:26:44Z</time>
      </trkpt>
      <trkpt lat="59.9992973" lon="17.7366628">
        <ele>55.8938</ele>
        <time>2012-03-22T16:26:50Z</time>
      </trkpt>
      <trkpt lat="59.9994265" lon="17.7366846">
        <ele>56.3745</ele>
        <time>2012-03-22T16:26:55Z</time>
      </trkpt>
      <trkpt lat="59.9994744" lon="17.7366926">
        <ele>57.3358</ele>
        <time>2012-03-22T16:26:57Z</time>
      </trkpt>
      <trkpt lat="59.999647" lon="17.7367264">
        <ele>57.3358</ele>
        <time>2012-03-22T16:27:03Z</time>
      </trkpt>
      <trkpt lat="59.9997451" lon="17.7367581">
        <ele>56.8551</ele>
        <time>2012-03-22T16:27:07Z</time>
      </trkpt>
      <trkpt lat="59.9997776" lon="17.7367615">
        <ele>57.3358</ele>
        <time>2012-03-22T16:27:08Z</time>
      </trkpt>
      <trkpt lat="59.999801" lon="17.7367687">
        <ele>57.3358</ele>
        <time>2012-03-22T16:27:09Z</time>
      </trkpt>
      <trkpt lat="59.9998415" lon="17.7368257">
        <ele>57.8165</ele>
        <time>2012-03-22T16:27:11Z</time>
      </trkpt>
      <trkpt lat="59.999837" lon="17.7368622">
        <ele>55.8938</ele>
        <time>2012-03-22T16:27:13Z</time>
      </trkpt>
      <trkpt lat="59.9996635" lon="17.7368363">
        <ele>49.1646</ele>
        <time>2012-03-22T16:27:19Z</time>
      </trkpt>
      <trkpt lat="59.9994972" lon="17.7368472">
        <ele>46.2806</ele>
        <time>2012-03-22T16:27:25Z</time>
      </trkpt>
      <trkpt lat="59.9993831" lon="17.73683">
        <ele>45.3192</ele>
        <time>2012-03-22T16:27:30Z</time>
      </trkpt>
      <trkpt lat="59.9993587" lon="17.7368236">
        <ele>44.8386</ele>
        <time>2012-03-22T16:27:31Z</time>
      </trkpt>
      <trkpt lat="59.9992337" lon="17.7368269">
        <ele>44.8386</ele>
        <time>2012-03-22T16:27:36Z</time>
      </trkpt>
      <trkpt lat="59.9990719" lon="17.7368073">
        <ele>44.8386</ele>
        <time>2012-03-22T16:27:42Z</time>
      </trkpt>
      <trkpt lat="59.9989275" lon="17.73676">
        <ele>43.3966</ele>
        <time>2012-03-22T16:27:48Z</time>
      </trkpt>
      <trkpt lat="59.9987836" lon="17.7367244">
        <ele>45.3192</ele>
        <time>2012-03-22T16:27:54Z</time>
      </trkpt>
      <trkpt lat="59.9987505" lon="17.7366919">
        <ele>45.7999</ele>
        <time>2012-03-22T16:27:56Z</time>
      </trkpt>
      <trkpt lat="59.9985827" lon="17.7366959">
        <ele>47.7225</ele>
        <time>2012-03-22T16:28:02Z</time>
      </trkpt>
      <trkpt lat="59.998551" lon="17.7367032">
        <ele>47.2418</ele>
        <time>2012-03-22T16:28:03Z</time>
      </trkpt>
      <trkpt lat="59.9983919" lon="17.736671">
        <ele>48.2034</ele>
        <time>2012-03-22T16:28:09Z</time>
      </trkpt>
      <trkpt lat="59.9982589" lon="17.7366643">
        <ele>47.7225</ele>
        <time>2012-03-22T16:28:15Z</time>
      </trkpt>
      <trkpt lat="59.9981471" lon="17.7366333">
        <ele>46.7612</ele>
        <time>2012-03-22T16:28:20Z</time>
      </trkpt>
      <trkpt lat="59.9979588" lon="17.7366109">
        <ele>49.1646</ele>
        <time>2012-03-22T16:28:26Z</time>
      </trkpt>
      <trkpt lat="59.9979346" lon="17.7366102">
        <ele>50.126</ele>
        <time>2012-03-22T16:28:27Z</time>
      </trkpt>
      <trkpt lat="59.9977907" lon="17.736632">
        <ele>53.9712</ele>
        <time>2012-03-22T16:28:33Z</time>
      </trkpt>
      <trkpt lat="59.9977298" lon="17.7365731">
        <ele>53.4905</ele>
        <time>2012-03-22T16:28:37Z</time>
      </trkpt>
      <trkpt lat="59.9976298" lon="17.7365993">
        <ele>53.4905</ele>
        <time>2012-03-22T16:28:41Z</time>
      </trkpt>
      <trkpt lat="59.9975527" lon="17.7365998">
        <ele>53.9712</ele>
        <time>2012-03-22T16:28:44Z</time>
      </trkpt>
      <trkpt lat="59.9973586" lon="17.7366773">
        <ele>55.4131</ele>
        <time>2012-03-22T16:28:50Z</time>
      </trkpt>
      <trkpt lat="59.9972089" lon="17.7367094">
        <ele>55.4131</ele>
        <time>2012-03-22T16:28:54Z</time>
      </trkpt>
      <trkpt lat="59.9971817" lon="17.7367099">
        <ele>56.8551</ele>
        <time>2012-03-22T16:28:55Z</time>
      </trkpt>
      <trkpt lat="59.9971021" lon="17.7367104">
        <ele>57.3358</ele>
        <time>2012-03-22T16:28:58Z</time>
      </trkpt>
      <trkpt lat="59.9969249" lon="17.736748">
        <ele>60.7003</ele>
        <time>2012-03-22T16:29:04Z</time>
      </trkpt>
      <trkpt lat="59.9967487" lon="17.7367488">
        <ele>60.2197</ele>
        <time>2012-03-22T16:29:09Z</time>
      </trkpt>
      <trkpt lat="59.9966959" lon="17.7367223">
        <ele>57.8165</ele>
        <time>2012-03-22T16:29:11Z</time>
      </trkpt>
      <trkpt lat="59.9964913" lon="17.7366204">
        <ele>53.9712</ele>
        <time>2012-03-22T16:29:19Z</time>
      </trkpt>
      <trkpt lat="59.996354" lon="17.7365121">
        <ele>50.126</ele>
        <time>2012-03-22T16:29:25Z</time>
      </trkpt>
      <trkpt lat="59.9962291" lon="17.7364123">
        <ele>51.5679</ele>
        <time>2012-03-22T16:29:31Z</time>
      </trkpt>
      <trkpt lat="59.9960935" lon="17.7363271">
        <ele>54.4518</ele>
        <time>2012-03-22T16:29:37Z</time>
      </trkpt>
      <trkpt lat="59.9959776" lon="17.7362694">
        <ele>54.4518</ele>
        <time>2012-03-22T16:29:42Z</time>
      </trkpt>
      <trkpt lat="59.9958999" lon="17.7362227">
        <ele>53.0098</ele>
        <time>2012-03-22T16:29:46Z</time>
      </trkpt>
      <trkpt lat="59.9957927" lon="17.7361906">
        <ele>53.9712</ele>
        <time>2012-03-22T16:29:50Z</time>
      </trkpt>
      <trkpt lat="59.9956605" lon="17.7361836">
        <ele>54.4518</ele>
        <time>2012-03-22T16:29:55Z</time>
      </trkpt>
      <trkpt lat="59.9955547" lon="17.7362153">
        <ele>55.8938</ele>
        <time>2012-03-22T16:29:59Z</time>
      </trkpt>
      <trkpt lat="59.9954073" lon="17.7362592">
        <ele>56.3745</ele>
        <time>2012-03-22T16:30:04Z</time>
      </trkpt>
      <trkpt lat="59.9952494" lon="17.7362748">
        <ele>60.2197</ele>
        <time>2012-03-22T16:30:09Z</time>
      </trkpt>
      <trkpt lat="59.9951068" lon="17.7362508">
        <ele>61.6617</ele>
        <time>2012-03-22T16:30:13Z</time>
      </trkpt>
      <trkpt lat="59.9950586" lon="17.736266">
        <ele>61.181</ele>
        <time>2012-03-22T16:30:15Z</time>
      </trkpt>
      <trkpt lat="59.9948954" lon="17.7362378">
        <ele>56.3745</ele>
        <time>2012-03-22T16:30:21Z</time>
      </trkpt>
      <trkpt lat="59.9947764" lon="17.7361163">
        <ele>50.6066</ele>
        <time>2012-03-22T16:30:26Z</time>
      </trkpt>
      <trkpt lat="59.9946832" lon="17.7360095">
        <ele>47.2418</ele>
        <time>2012-03-22T16:30:31Z</time>
      </trkpt>
      <trkpt lat="59.9946597" lon="17.7360121">
        <ele>46.7612</ele>
        <time>2012-03-22T16:30:32Z</time>
      </trkpt>
      <trkpt lat="59.9945767" lon="17.7359241">
        <ele>44.8386</ele>
        <time>2012-03-22T16:30:36Z</time>
      </trkpt>
      <trkpt lat="59.9944463" lon="17.7357825">
        <ele>45.3192</ele>
        <time>2012-03-22T16:30:42Z</time>
      </trkpt>
      <trkpt lat="59.9943567" lon="17.7357381">
        <ele>45.3192</ele>
        <time>2012-03-22T16:30:46Z</time>
      </trkpt>
      <trkpt lat="59.9942258" lon="17.7356786">
        <ele>44.358</ele>
        <time>2012-03-22T16:30:51Z</time>
      </trkpt>
      <trkpt lat="59.9941587" lon="17.7356255">
        <ele>43.3966</ele>
        <time>2012-03-22T16:30:55Z</time>
      </trkpt>
      <trkpt lat="59.9941086" lon="17.7356226">
        <ele>43.3966</ele>
        <time>2012-03-22T16:30:57Z</time>
      </trkpt>
      <trkpt lat="59.9939931" lon="17.7356226">
        <ele>43.3966</ele>
        <time>2012-03-22T16:31:02Z</time>
      </trkpt>
      <trkpt lat="59.9938842" lon="17.7355944">
        <ele>44.8386</ele>
        <time>2012-03-22T16:31:07Z</time>
      </trkpt>
      <trkpt lat="59.9937548" lon="17.7355536">
        <ele>45.7999</ele>
        <time>2012-03-22T16:31:12Z</time>
      </trkpt>
      <trkpt lat="59.9936512" lon="17.735498">
        <ele>49.1646</ele>
        <time>2012-03-22T16:31:16Z</time>
      </trkpt>
      <trkpt lat="59.9936257" lon="17.7354782">
        <ele>49.1646</ele>
        <time>2012-03-22T16:31:17Z</time>
      </trkpt>
      <trkpt lat="59.9935064" lon="17.7355379">
        <ele>53.4905</ele>
        <time>2012-03-22T16:31:23Z</time>
      </trkpt>
      <trkpt lat="59.9934493" lon="17.7356359">
        <ele>57.3358</ele>
        <time>2012-03-22T16:31:26Z</time>
      </trkpt>
      <trkpt lat="59.9932927" lon="17.7359194">
        <ele>60.7003</ele>
        <time>2012-03-22T16:31:32Z</time>
      </trkpt>
      <trkpt lat="59.993155" lon="17.7361857">
        <ele>66.4683</ele>
        <time>2012-03-22T16:31:38Z</time>
      </trkpt>
      <trkpt lat="59.9930612" lon="17.7364151">
        <ele>65.9877</ele>
        <time>2012-03-22T16:31:43Z</time>
      </trkpt>
      <trkpt lat="59.9929972" lon="17.7365721">
        <ele>63.1036</ele>
        <time>2012-03-22T16:31:47Z</time>
      </trkpt>
      <trkpt lat="59.9929353" lon="17.7367273">
        <ele>60.7003</ele>
        <time>2012-03-22T16:31:51Z</time>
      </trkpt>
      <trkpt lat="59.9928312" lon="17.7369098">
        <ele>58.2971</ele>
        <time>2012-03-22T16:31:56Z</time>
      </trkpt>
      <trkpt lat="59.992769" lon="17.7370184">
        <ele>59.2584</ele>
        <time>2012-03-22T16:31:59Z</time>
      </trkpt>
      <trkpt lat="59.9926607" lon="17.7371324">
        <ele>59.2584</ele>
        <time>2012-03-22T16:32:04Z</time>
      </trkpt>
      <trkpt lat="59.9925437" lon="17.737318">
        <ele>59.7391</ele>
        <time>2012-03-22T16:32:09Z</time>
      </trkpt>
      <trkpt lat="59.9924145" lon="17.7375091">
        <ele>62.1423</ele>
        <time>2012-03-22T16:32:15Z</time>
      </trkpt>
      <trkpt lat="59.9923062" lon="17.7376112">
        <ele>63.5844</ele>
        <time>2012-03-22T16:32:20Z</time>
      </trkpt>
      <trkpt lat="59.9922721" lon="17.7376545">
        <ele>65.0264</ele>
        <time>2012-03-22T16:32:22Z</time>
      </trkpt>
      <trkpt lat="59.992127" lon="17.7377656">
        <ele>67.9103</ele>
        <time>2012-03-22T16:32:28Z</time>
      </trkpt>
      <trkpt lat="59.992104" lon="17.7377768">
        <ele>67.4297</ele>
        <time>2012-03-22T16:32:29Z</time>
      </trkpt>
      <trkpt lat="59.992006" lon="17.7377573">
        <ele>65.0264</ele>
        <time>2012-03-22T16:32:34Z</time>
      </trkpt>
      <trkpt lat="59.9919222" lon="17.7377324">
        <ele>61.6617</ele>
        <time>2012-03-22T16:32:38Z</time>
      </trkpt>
      <trkpt lat="59.9918721" lon="17.7377376">
        <ele>61.181</ele>
        <time>2012-03-22T16:32:40Z</time>
      </trkpt>
      <trkpt lat="59.9917511" lon="17.737736">
        <ele>59.7391</ele>
        <time>2012-03-22T16:32:45Z</time>
      </trkpt>
      <trkpt lat="59.9916657" lon="17.7377066">
        <ele>59.7391</ele>
        <time>2012-03-22T16:32:49Z</time>
      </trkpt>
      <trkpt lat="59.9916401" lon="17.7376941">
        <ele>59.7391</ele>
        <time>2012-03-22T16:32:50Z</time>
      </trkpt>
      <trkpt lat="59.991495" lon="17.73772">
        <ele>61.181</ele>
        <time>2012-03-22T16:32:55Z</time>
      </trkpt>
      <trkpt lat="59.9913367" lon="17.7378272">
        <ele>64.5457</ele>
        <time>2012-03-22T16:33:00Z</time>
      </trkpt>
      <trkpt lat="59.991215" lon="17.7378945">
        <ele>67.4297</ele>
        <time>2012-03-22T16:33:05Z</time>
      </trkpt>
      <trkpt lat="59.9910927" lon="17.737908">
        <ele>65.5071</ele>
        <time>2012-03-22T16:33:10Z</time>
      </trkpt>
      <trkpt lat="59.9909345" lon="17.7379107">
        <ele>66.949</ele>
        <time>2012-03-22T16:33:15Z</time>
      </trkpt>
      <trkpt lat="59.9908366" lon="17.7379001">
        <ele>67.4297</ele>
        <time>2012-03-22T16:33:20Z</time>
      </trkpt>
      <trkpt lat="59.9907374" lon="17.7379976">
        <ele>66.949</ele>
        <time>2012-03-22T16:33:25Z</time>
      </trkpt>
      <trkpt lat="59.9906984" lon="17.7380142">
        <ele>66.4683</ele>
        <time>2012-03-22T16:33:27Z</time>
      </trkpt>
      <trkpt lat="59.990596" lon="17.7381215">
        <ele>64.5457</ele>
        <time>2012-03-22T16:33:32Z</time>
      </trkpt>
      <trkpt lat="59.9905095" lon="17.7381721">
        <ele>60.7003</ele>
        <time>2012-03-22T16:33:36Z</time>
      </trkpt>
      <trkpt lat="59.9903793" lon="17.738212">
        <ele>56.8551</ele>
        <time>2012-03-22T16:33:41Z</time>
      </trkpt>
      <trkpt lat="59.990252" lon="17.7382537">
        <ele>56.8551</ele>
        <time>2012-03-22T16:33:46Z</time>
      </trkpt>
      <trkpt lat="59.9900899" lon="17.7383531">
        <ele>59.2584</ele>
        <time>2012-03-22T16:33:53Z</time>
      </trkpt>
      <trkpt lat="59.9899627" lon="17.7383888">
        <ele>59.2584</ele>
        <time>2012-03-22T16:33:58Z</time>
      </trkpt>
      <trkpt lat="59.9898711" lon="17.7384225">
        <ele>61.181</ele>
        <time>2012-03-22T16:34:02Z</time>
      </trkpt>
      <trkpt lat="59.9897428" lon="17.738426">
        <ele>61.181</ele>
        <time>2012-03-22T16:34:08Z</time>
      </trkpt>
      <trkpt lat="59.9896023" lon="17.7384885">
        <ele>60.7003</ele>
        <time>2012-03-22T16:34:13Z</time>
      </trkpt>
      <trkpt lat="59.9894657" lon="17.738612">
        <ele>61.181</ele>
        <time>2012-03-22T16:34:17Z</time>
      </trkpt>
      <trkpt lat="59.9893305" lon="17.7386843">
        <ele>61.181</ele>
        <time>2012-03-22T16:34:21Z</time>
      </trkpt>
      <trkpt lat="59.9891584" lon="17.7387195">
        <ele>60.2197</ele>
        <time>2012-03-22T16:34:27Z</time>
      </trkpt>
      <trkpt lat="59.9890439" lon="17.7386887">
        <ele>60.2197</ele>
        <time>2012-03-22T16:34:32Z</time>
      </trkpt>
      <trkpt lat="59.9889786" lon="17.738727">
        <ele>60.7003</ele>
        <time>2012-03-22T16:34:36Z</time>
      </trkpt>
      <trkpt lat="59.9889449" lon="17.7387694">
        <ele>62.1423</ele>
        <time>2012-03-22T16:34:38Z</time>
      </trkpt>
      <trkpt lat="59.9888364" lon="17.7388595">
        <ele>62.1423</ele>
        <time>2012-03-22T16:34:43Z</time>
      </trkpt>
      <trkpt lat="59.988746" lon="17.7389192">
        <ele>61.6617</ele>
        <time>2012-03-22T16:34:47Z</time>
      </trkpt>
      <trkpt lat="59.9886301" lon="17.7389843">
        <ele>59.7391</ele>
        <time>2012-03-22T16:34:52Z</time>
      </trkpt>
      <trkpt lat="59.9884816" lon="17.7390891">
        <ele>59.2584</ele>
        <time>2012-03-22T16:34:58Z</time>
      </trkpt>
      <trkpt lat="59.9883819" lon="17.7391419">
        <ele>58.2971</ele>
        <time>2012-03-22T16:35:03Z</time>
      </trkpt>
      <trkpt lat="59.988282" lon="17.7392122">
        <ele>58.7777</ele>
        <time>2012-03-22T16:35:08Z</time>
      </trkpt>
      <trkpt lat="59.9881226" lon="17.7392284">
        <ele>61.181</ele>
        <time>2012-03-22T16:35:14Z</time>
      </trkpt>
      <trkpt lat="59.988064" lon="17.7392309">
        <ele>60.2197</ele>
        <time>2012-03-22T16:35:16Z</time>
      </trkpt>
      <trkpt lat="59.9880037" lon="17.7392559">
        <ele>60.7003</ele>
        <time>2012-03-22T16:35:18Z</time>
      </trkpt>
      <trkpt lat="59.9878728" lon="17.7392958">
        <ele>61.6617</ele>
        <time>2012-03-22T16:35:24Z</time>
      </trkpt>
      <trkpt lat="59.9877231" lon="17.7392801">
        <ele>58.2971</ele>
        <time>2012-03-22T16:35:30Z</time>
      </trkpt>
      <trkpt lat="59.9875651" lon="17.7393175">
        <ele>61.6617</ele>
        <time>2012-03-22T16:35:36Z</time>
      </trkpt>
      <trkpt lat="59.9875112" lon="17.7393345">
        <ele>61.6617</ele>
        <time>2012-03-22T16:35:38Z</time>
      </trkpt>
      <trkpt lat="59.9873744" lon="17.7393792">
        <ele>61.6617</ele>
        <time>2012-03-22T16:35:43Z</time>
      </trkpt>
      <trkpt lat="59.9872893" lon="17.7393999">
        <ele>60.2197</ele>
        <time>2012-03-22T16:35:46Z</time>
      </trkpt>
      <trkpt lat="59.9871007" lon="17.7393818">
        <ele>57.8165</ele>
        <time>2012-03-22T16:35:52Z</time>
      </trkpt>
      <trkpt lat="59.9869968" lon="17.7393345">
        <ele>55.8938</ele>
        <time>2012-03-22T16:35:56Z</time>
      </trkpt>
      <trkpt lat="59.9869237" lon="17.7392736">
        <ele>53.4905</ele>
        <time>2012-03-22T16:35:59Z</time>
      </trkpt>
      <trkpt lat="59.9867506" lon="17.7391771">
        <ele>52.0486</ele>
        <time>2012-03-22T16:36:06Z</time>
      </trkpt>
      <trkpt lat="59.9866166" lon="17.7391104">
        <ele>52.0486</ele>
        <time>2012-03-22T16:36:11Z</time>
      </trkpt>
      <trkpt lat="59.9864996" lon="17.739042">
        <ele>54.4518</ele>
        <time>2012-03-22T16:36:15Z</time>
      </trkpt>
      <trkpt lat="59.9863757" lon="17.7389435">
        <ele>56.3745</ele>
        <time>2012-03-22T16:36:20Z</time>
      </trkpt>
      <trkpt lat="59.9862218" lon="17.7388255">
        <ele>58.7777</ele>
        <time>2012-03-22T16:36:26Z</time>
      </trkpt>
      <trkpt lat="59.986149" lon="17.7387686">
        <ele>60.2197</ele>
        <time>2012-03-22T16:36:29Z</time>
      </trkpt>
      <trkpt lat="59.9860275" lon="17.7386751">
        <ele>61.181</ele>
        <time>2012-03-22T16:36:34Z</time>
      </trkpt>
      <trkpt lat="59.9860064" lon="17.7386596">
        <ele>61.181</ele>
        <time>2012-03-22T16:36:35Z</time>
      </trkpt>
      <trkpt lat="59.985837" lon="17.73861">
        <ele>62.6229</ele>
        <time>2012-03-22T16:36:41Z</time>
      </trkpt>
      <trkpt lat="59.9857463" lon="17.7385491">
        <ele>61.6617</ele>
        <time>2012-03-22T16:36:45Z</time>
      </trkpt>
      <trkpt lat="59.9856335" lon="17.7384617">
        <ele>57.3358</ele>
        <time>2012-03-22T16:36:50Z</time>
      </trkpt>
      <trkpt lat="59.985535" lon="17.7383937">
        <ele>56.8551</ele>
        <time>2012-03-22T16:36:54Z</time>
      </trkpt>
      <trkpt lat="59.9854673" lon="17.7383779">
        <ele>57.3358</ele>
        <time>2012-03-22T16:36:56Z</time>
      </trkpt>
      <trkpt lat="59.9853221" lon="17.7383468">
        <ele>57.3358</ele>
        <time>2012-03-22T16:37:01Z</time>
      </trkpt>
      <trkpt lat="59.9852573" lon="17.7383067">
        <ele>56.8551</ele>
        <time>2012-03-22T16:37:04Z</time>
      </trkpt>
      <trkpt lat="59.9851391" lon="17.7382764">
        <ele>54.4518</ele>
        <time>2012-03-22T16:37:10Z</time>
      </trkpt>
      <trkpt lat="59.984993" lon="17.7382546">
        <ele>52.0486</ele>
        <time>2012-03-22T16:37:16Z</time>
      </trkpt>
      <trkpt lat="59.9848809" lon="17.7382292">
        <ele>51.0872</ele>
        <time>2012-03-22T16:37:20Z</time>
      </trkpt>
      <trkpt lat="59.9848517" lon="17.7382194">
        <ele>51.0872</ele>
        <time>2012-03-22T16:37:21Z</time>
      </trkpt>
      <trkpt lat="59.9847166" lon="17.7382088">
        <ele>51.5679</ele>
        <time>2012-03-22T16:37:26Z</time>
      </trkpt>
      <trkpt lat="59.9846072" lon="17.7382028">
        <ele>52.5292</ele>
        <time>2012-03-22T16:37:30Z</time>
      </trkpt>
      <trkpt lat="59.9844421" lon="17.7381322">
        <ele>53.0098</ele>
        <time>2012-03-22T16:37:36Z</time>
      </trkpt>
      <trkpt lat="59.9843144" lon="17.7381344">
        <ele>53.9712</ele>
        <time>2012-03-22T16:37:41Z</time>
      </trkpt>
      <trkpt lat="59.9841674" lon="17.7381117">
        <ele>52.5292</ele>
        <time>2012-03-22T16:37:46Z</time>
      </trkpt>
      <trkpt lat="59.9840115" lon="17.738094">
        <ele>50.6066</ele>
        <time>2012-03-22T16:37:51Z</time>
      </trkpt>
      <trkpt lat="59.9838659" lon="17.7380779">
        <ele>48.2034</ele>
        <time>2012-03-22T16:37:57Z</time>
      </trkpt>
      <trkpt lat="59.9837251" lon="17.7381013">
        <ele>48.684</ele>
        <time>2012-03-22T16:38:02Z</time>
      </trkpt>
      <trkpt lat="59.9836314" lon="17.7381391">
        <ele>49.1646</ele>
        <time>2012-03-22T16:38:06Z</time>
      </trkpt>
      <trkpt lat="59.9835992" lon="17.7381319">
        <ele>49.1646</ele>
        <time>2012-03-22T16:38:08Z</time>
      </trkpt>
      <trkpt lat="59.9834998" lon="17.7381822">
        <ele>49.6453</ele>
        <time>2012-03-22T16:38:13Z</time>
      </trkpt>
      <trkpt lat="59.9833329" lon="17.7382312">
        <ele>52.0486</ele>
        <time>2012-03-22T16:38:18Z</time>
      </trkpt>
      <trkpt lat="59.9832203" lon="17.7382269">
        <ele>49.1646</ele>
        <time>2012-03-22T16:38:22Z</time>
      </trkpt>
      <trkpt lat="59.9831238" lon="17.738229">
        <ele>48.684</ele>
        <time>2012-03-22T16:38:26Z</time>
      </trkpt>
      <trkpt lat="59.9829963" lon="17.7382246">
        <ele>49.6453</ele>
        <time>2012-03-22T16:38:31Z</time>
      </trkpt>
      <trkpt lat="59.982975" lon="17.7382349">
        <ele>50.126</ele>
        <time>2012-03-22T16:38:32Z</time>
      </trkpt>
      <trkpt lat="59.9828811" lon="17.7382073">
        <ele>51.0872</ele>
        <time>2012-03-22T16:38:37Z</time>
      </trkpt>
      <trkpt lat="59.9827168" lon="17.7381883">
        <ele>49.6453</ele>
        <time>2012-03-22T16:38:43Z</time>
      </trkpt>
      <trkpt lat="59.9826015" lon="17.7382079">
        <ele>51.5679</ele>
        <time>2012-03-22T16:38:47Z</time>
      </trkpt>
      <trkpt lat="59.9824833" lon="17.7382366">
        <ele>53.0098</ele>
        <time>2012-03-22T16:38:51Z</time>
      </trkpt>
      <trkpt lat="59.9823694" lon="17.7382489">
        <ele>53.4905</ele>
        <time>2012-03-22T16:38:55Z</time>
      </trkpt>
      <trkpt lat="59.9822193" lon="17.738311">
        <ele>54.4518</ele>
        <time>2012-03-22T16:39:00Z</time>
      </trkpt>
      <trkpt lat="59.9821192" lon="17.738345">
        <ele>54.9324</ele>
        <time>2012-03-22T16:39:04Z</time>
      </trkpt>
      <trkpt lat="59.9820275" lon="17.7383438">
        <ele>55.4131</ele>
        <time>2012-03-22T16:39:09Z</time>
      </trkpt>
      <trkpt lat="59.9819139" lon="17.7383448">
        <ele>54.9324</ele>
        <time>2012-03-22T16:39:14Z</time>
      </trkpt>
      <trkpt lat="59.9817565" lon="17.738429">
        <ele>53.9712</ele>
        <time>2012-03-22T16:39:19Z</time>
      </trkpt>
      <trkpt lat="59.9816422" lon="17.7384973">
        <ele>55.4131</ele>
        <time>2012-03-22T16:39:24Z</time>
      </trkpt>
      <trkpt lat="59.9815091" lon="17.7385631">
        <ele>56.3745</ele>
        <time>2012-03-22T16:39:29Z</time>
      </trkpt>
      <trkpt lat="59.9814061" lon="17.7386114">
        <ele>56.3745</ele>
        <time>2012-03-22T16:39:33Z</time>
      </trkpt>
      <trkpt lat="59.9813883" lon="17.7386154">
        <ele>55.8938</ele>
        <time>2012-03-22T16:39:34Z</time>
      </trkpt>
      <trkpt lat="59.9812413" lon="17.7386793">
        <ele>52.5292</ele>
        <time>2012-03-22T16:39:40Z</time>
      </trkpt>
      <trkpt lat="59.9810448" lon="17.738757">
        <ele>53.0098</ele>
        <time>2012-03-22T16:39:45Z</time>
      </trkpt>
      <trkpt lat="59.9808996" lon="17.7387362">
        <ele>55.4131</ele>
        <time>2012-03-22T16:39:50Z</time>
      </trkpt>
      <trkpt lat="59.9807932" lon="17.7387898">
        <ele>53.9712</ele>
        <time>2012-03-22T16:39:54Z</time>
      </trkpt>
      <trkpt lat="59.9806761" lon="17.7387737">
        <ele>51.5679</ele>
        <time>2012-03-22T16:39:59Z</time>
      </trkpt>
      <trkpt lat="59.9805511" lon="17.7388038">
        <ele>51.0872</ele>
        <time>2012-03-22T16:40:03Z</time>
      </trkpt>
      <trkpt lat="59.9804595" lon="17.7388229">
        <ele>48.2034</ele>
        <time>2012-03-22T16:40:06Z</time>
      </trkpt>
      <trkpt lat="59.980348" lon="17.7388616">
        <ele>44.358</ele>
        <time>2012-03-22T16:40:11Z</time>
      </trkpt>
      <trkpt lat="59.9802094" lon="17.7388798">
        <ele>43.3966</ele>
        <time>2012-03-22T16:40:16Z</time>
      </trkpt>
      <trkpt lat="59.9801228" lon="17.7388592">
        <ele>41.9547</ele>
        <time>2012-03-22T16:40:20Z</time>
      </trkpt>
      <trkpt lat="59.9800941" lon="17.7388617">
        <ele>41.9547</ele>
        <time>2012-03-22T16:40:21Z</time>
      </trkpt>
      <trkpt lat="59.9799584" lon="17.7388301">
        <ele>37.6287</ele>
        <time>2012-03-22T16:40:26Z</time>
      </trkpt>
      <trkpt lat="59.9797782" lon="17.7388755">
        <ele>34.7449</ele>
        <time>2012-03-22T16:40:32Z</time>
      </trkpt>
      <trkpt lat="59.9796938" lon="17.7389238">
        <ele>33.7834</ele>
        <time>2012-03-22T16:40:35Z</time>
      </trkpt>
      <trkpt lat="59.9795373" lon="17.7389622">
        <ele>33.3029</ele>
        <time>2012-03-22T16:40:41Z</time>
      </trkpt>
      <trkpt lat="59.9795176" lon="17.7389643">
        <ele>33.3029</ele>
        <time>2012-03-22T16:40:42Z</time>
      </trkpt>
      <trkpt lat="59.9793785" lon="17.7390533">
        <ele>33.3029</ele>
        <time>2012-03-22T16:40:48Z</time>
      </trkpt>
      <trkpt lat="59.9792583" lon="17.7391356">
        <ele>33.3029</ele>
        <time>2012-03-22T16:40:53Z</time>
      </trkpt>
      <trkpt lat="59.9790916" lon="17.7392249">
        <ele>34.7449</ele>
        <time>2012-03-22T16:40:59Z</time>
      </trkpt>
      <trkpt lat="59.9789538" lon="17.7393061">
        <ele>37.1481</ele>
        <time>2012-03-22T16:41:04Z</time>
      </trkpt>
      <trkpt lat="59.9788268" lon="17.7393085">
        <ele>37.6287</ele>
        <time>2012-03-22T16:41:09Z</time>
      </trkpt>
      <trkpt lat="59.9786745" lon="17.7392891">
        <ele>36.1868</ele>
        <time>2012-03-22T16:41:14Z</time>
      </trkpt>
      <trkpt lat="59.9785639" lon="17.7392736">
        <ele>35.2255</ele>
        <time>2012-03-22T16:41:18Z</time>
      </trkpt>
      <trkpt lat="59.9784332" lon="17.7392287">
        <ele>36.6675</ele>
        <time>2012-03-22T16:41:24Z</time>
      </trkpt>
      <trkpt lat="59.978386" lon="17.7392125">
        <ele>36.1868</ele>
        <time>2012-03-22T16:41:26Z</time>
      </trkpt>
      <trkpt lat="59.9782565" lon="17.7392164">
        <ele>37.6287</ele>
        <time>2012-03-22T16:41:31Z</time>
      </trkpt>
      <trkpt lat="59.9782243" lon="17.739217">
        <ele>38.5901</ele>
        <time>2012-03-22T16:41:32Z</time>
      </trkpt>
      <trkpt lat="59.9780218" lon="17.7391632">
        <ele>38.1094</ele>
        <time>2012-03-22T16:41:39Z</time>
      </trkpt>
      <trkpt lat="59.9778359" lon="17.7391081">
        <ele>38.5901</ele>
        <time>2012-03-22T16:41:46Z</time>
      </trkpt>
      <trkpt lat="59.9777264" lon="17.7390254">
        <ele>37.1481</ele>
        <time>2012-03-22T16:41:51Z</time>
      </trkpt>
      <trkpt lat="59.9776315" lon="17.7389811">
        <ele>35.2255</ele>
        <time>2012-03-22T16:41:55Z</time>
      </trkpt>
      <trkpt lat="59.9775111" lon="17.7389762">
        <ele>33.7834</ele>
        <time>2012-03-22T16:42:00Z</time>
      </trkpt>
      <trkpt lat="59.9774467" lon="17.738988">
        <ele>33.3029</ele>
        <time>2012-03-22T16:42:02Z</time>
      </trkpt>
      <trkpt lat="59.977306" lon="17.7390558">
        <ele>32.3416</ele>
        <time>2012-03-22T16:42:07Z</time>
      </trkpt>
      <trkpt lat="59.9772096" lon="17.7391174">
        <ele>31.8607</ele>
        <time>2012-03-22T16:42:11Z</time>
      </trkpt>
      <trkpt lat="59.9771055" lon="17.7391992">
        <ele>31.8607</ele>
        <time>2012-03-22T16:42:15Z</time>
      </trkpt>
      <trkpt lat="59.9769872" lon="17.7392708">
        <ele>31.3801</ele>
        <time>2012-03-22T16:42:20Z</time>
      </trkpt>
      <trkpt lat="59.9768292" lon="17.7394009">
        <ele>30.8995</ele>
        <time>2012-03-22T16:42:25Z</time>
      </trkpt>
      <trkpt lat="59.976745" lon="17.7394294">
        <ele>30.4188</ele>
        <time>2012-03-22T16:42:28Z</time>
      </trkpt>
      <trkpt lat="59.9765593" lon="17.7395471">
        <ele>27.5349</ele>
        <time>2012-03-22T16:42:34Z</time>
      </trkpt>
      <trkpt lat="59.9764603" lon="17.7396171">
        <ele>25.6123</ele>
        <time>2012-03-22T16:42:38Z</time>
      </trkpt>
      <trkpt lat="59.9763953" lon="17.7396733">
        <ele>26.0929</ele>
        <time>2012-03-22T16:42:41Z</time>
      </trkpt>
      <trkpt lat="59.9763156" lon="17.7398889">
        <ele>28.0155</ele>
        <time>2012-03-22T16:42:47Z</time>
      </trkpt>
      <trkpt lat="59.976241" lon="17.7401732">
        <ele>31.8607</ele>
        <time>2012-03-22T16:42:53Z</time>
      </trkpt>
      <trkpt lat="59.9761663" lon="17.7404031">
        <ele>34.2642</ele>
        <time>2012-03-22T16:42:58Z</time>
      </trkpt>
      <trkpt lat="59.9760908" lon="17.7406338">
        <ele>35.7061</ele>
        <time>2012-03-22T16:43:03Z</time>
      </trkpt>
      <trkpt lat="59.9760482" lon="17.7408182">
        <ele>37.1481</ele>
        <time>2012-03-22T16:43:07Z</time>
      </trkpt>
      <trkpt lat="59.9759911" lon="17.741056">
        <ele>38.5901</ele>
        <time>2012-03-22T16:43:12Z</time>
      </trkpt>
      <trkpt lat="59.9759399" lon="17.741275">
        <ele>40.5128</ele>
        <time>2012-03-22T16:43:17Z</time>
      </trkpt>
      <trkpt lat="59.9758665" lon="17.7415464">
        <ele>42.916</ele>
        <time>2012-03-22T16:43:23Z</time>
      </trkpt>
      <trkpt lat="59.9758157" lon="17.7417486">
        <ele>43.8773</ele>
        <time>2012-03-22T16:43:27Z</time>
      </trkpt>
      <trkpt lat="59.9757789" lon="17.7419216">
        <ele>41.9547</ele>
        <time>2012-03-22T16:43:31Z</time>
      </trkpt>
      <trkpt lat="59.9757553" lon="17.7420015">
        <ele>40.9934</ele>
        <time>2012-03-22T16:43:33Z</time>
      </trkpt>
      <trkpt lat="59.9756968" lon="17.7419708">
        <ele>38.5901</ele>
        <time>2012-03-22T16:43:36Z</time>
      </trkpt>
      <trkpt lat="59.9757301" lon="17.7418314">
        <ele>36.6675</ele>
        <time>2012-03-22T16:43:39Z</time>
      </trkpt>
      <trkpt lat="59.9757431" lon="17.7418002">
        <ele>36.1868</ele>
        <time>2012-03-22T16:43:40Z</time>
      </trkpt>
      <trkpt lat="59.9758073" lon="17.7415103">
        <ele>35.2255</ele>
        <time>2012-03-22T16:43:46Z</time>
      </trkpt>
      <trkpt lat="59.9758667" lon="17.7412554">
        <ele>35.2255</ele>
        <time>2012-03-22T16:43:51Z</time>
      </trkpt>
      <trkpt lat="59.9759342" lon="17.7409803">
        <ele>34.2642</ele>
        <time>2012-03-22T16:43:57Z</time>
      </trkpt>
      <trkpt lat="59.9760058" lon="17.7407566">
        <ele>33.7834</ele>
        <time>2012-03-22T16:44:02Z</time>
      </trkpt>
      <trkpt lat="59.9760873" lon="17.7405403">
        <ele>32.3416</ele>
        <time>2012-03-22T16:44:07Z</time>
      </trkpt>
      <trkpt lat="59.9761461" lon="17.7403639">
        <ele>30.8995</ele>
        <time>2012-03-22T16:44:11Z</time>
      </trkpt>
      <trkpt lat="59.9762109" lon="17.7401505">
        <ele>29.4575</ele>
        <time>2012-03-22T16:44:16Z</time>
      </trkpt>
      <trkpt lat="59.9762979" lon="17.7398866">
        <ele>28.0155</ele>
        <time>2012-03-22T16:44:22Z</time>
      </trkpt>
      <trkpt lat="59.9763403" lon="17.7397672">
        <ele>27.0543</ele>
        <time>2012-03-22T16:44:25Z</time>
      </trkpt>
    </trkseg>
  </trk>
</gpx>